createdAt,value
2019-06-26T00:01:29.285Z,99878.58
2019-06-26T00:04:01.500Z,99878.41
2019-06-26T00:06:33.812Z,99874.99
2019-06-26T00:09:08.361Z,99876.80
2019-06-26T00:11:40.836Z,99876.80
2019-06-26T00:14:13.227Z,99876.12
2019-06-26T00:16:45.477Z,99875.32
2019-06-26T00:19:17.869Z,99874.34
2019-06-26T00:21:50.281Z,99879.72
2019-06-26T00:24:22.491Z,99880.19
2019-06-26T00:26:54.800Z,99883.92
2019-06-26T00:29:27.005Z,99884.58
2019-06-26T00:31:59.242Z,99885.72
2019-06-26T00:34:32.605Z,99883.75
2019-06-26T00:37:04.957Z,99884.23
2019-06-26T00:39:37.238Z,99885.54
2019-06-26T00:42:09.583Z,99885.87
2019-06-26T00:44:41.877Z,99884.55
2019-06-26T00:47:14.167Z,99891.23
2019-06-26T00:49:46.481Z,99892.03
2019-06-26T00:52:18.823Z,99893.33
2019-06-26T00:54:51.037Z,99894.96
2019-06-26T00:57:24.344Z,99893.17
2019-06-26T00:59:56.730Z,99892.00
2019-06-26T01:02:29.040Z,99894.30
2019-06-26T01:05:02.857Z,99903.06
2019-06-26T01:07:35.091Z,99898.82
2019-06-26T01:10:07.607Z,99901.94
2019-06-26T01:12:39.921Z,99903.53
2019-06-26T01:15:12.303Z,99897.34
2019-06-26T01:17:44.609Z,99901.09
2019-06-26T01:20:16.970Z,99898.67
2019-06-26T01:22:49.209Z,99899.45
2019-06-26T01:25:21.483Z,99899.63
2019-06-26T01:27:53.723Z,99900.44
2019-06-26T01:30:26.076Z,99902.55
2019-06-26T01:32:58.569Z,99901.70
2019-06-26T01:35:30.875Z,99898.62
2019-06-26T01:38:03.042Z,99897.14
2019-06-26T01:40:35.378Z,99900.23
2019-06-26T01:43:07.715Z,99896.49
2019-06-26T01:45:40.038Z,99898.61
2019-06-26T01:48:13.504Z,99898.77
2019-06-26T01:50:45.663Z,99899.42
2019-06-26T01:53:18.053Z,99902.66
2019-06-26T01:55:50.288Z,99902.34
2019-06-26T01:58:22.533Z,99903.33
2019-06-26T02:00:54.750Z,99905.44
2019-06-26T02:03:27.088Z,99908.35
2019-06-26T02:05:59.321Z,99909.30
2019-06-26T02:08:31.656Z,99907.36
2019-06-26T02:11:04.025Z,99904.39
2019-06-26T02:13:36.284Z,99900.66
2019-06-26T02:16:08.509Z,99904.57
2019-06-26T02:18:46.340Z,99896.56
2019-06-26T02:21:18.640Z,99899.81
2019-06-26T02:23:50.808Z,99904.20
2019-06-26T02:26:23.105Z,99902.58
2019-06-26T02:28:55.441Z,99903.38
2019-06-26T02:31:27.692Z,99900.45
2019-06-26T02:34:00.093Z,99902.41
2019-06-26T02:36:32.390Z,99899.47
2019-06-26T02:39:06.068Z,99893.78
2019-06-26T02:41:38.448Z,99893.95
2019-06-26T02:44:10.682Z,99891.48
2019-06-26T02:46:43.001Z,99901.39
2019-06-26T02:49:15.243Z,99902.52
2019-06-26T02:51:47.483Z,99899.94
2019-06-26T02:54:19.715Z,99896.20
2019-06-26T02:56:51.937Z,99900.09
2019-06-26T02:59:24.186Z,99898.62
2019-06-26T03:01:56.561Z,99898.95
2019-06-26T03:04:28.882Z,99898.93
2019-06-26T03:07:01.114Z,99902.02
2019-06-26T03:09:33.485Z,99903.00
2019-06-26T03:12:05.782Z,99906.23
2019-06-26T03:14:38.040Z,99906.71
2019-06-26T03:17:10.203Z,99909.49
2019-06-26T03:19:42.550Z,99910.91
2019-06-26T03:22:14.849Z,99910.09
2019-06-26T03:24:47.176Z,99911.86
2019-06-26T03:27:19.591Z,99915.43
2019-06-26T03:29:51.773Z,99917.39
2019-06-26T03:32:23.996Z,99916.91
2019-06-26T03:34:56.334Z,99919.84
2019-06-26T03:37:28.710Z,99919.68
2019-06-26T03:40:01.173Z,99920.62
2019-06-26T03:42:33.681Z,99928.08
2019-06-26T03:45:07.554Z,99925.80
2019-06-26T03:47:39.935Z,99927.42
2019-06-26T03:50:12.356Z,99930.51
2019-06-26T03:52:44.682Z,99934.56
2019-06-26T03:55:16.945Z,99931.14
2019-06-26T03:57:49.189Z,99936.66
2019-06-26T04:00:36.683Z,99939.09
2019-06-26T04:03:09.234Z,99946.27
2019-06-26T04:05:41.453Z,99948.53
2019-06-26T04:08:13.617Z,99952.59
2019-06-26T04:10:46.014Z,99955.20
2019-06-26T04:13:18.396Z,99951.12
2019-06-26T04:15:51.165Z,99952.77
2019-06-26T04:18:23.511Z,99955.35
2019-06-26T04:20:55.834Z,99957.80
2019-06-26T04:23:27.995Z,99958.45
2019-06-26T04:26:00.315Z,99956.84
2019-06-26T04:28:32.613Z,99962.68
2019-06-26T04:31:05.002Z,99967.26
2019-06-26T04:33:37.155Z,99962.87
2019-06-26T04:36:09.468Z,99962.86
2019-06-26T04:38:41.716Z,99967.59
2019-06-26T04:41:13.884Z,99962.56
2019-06-26T04:43:46.126Z,99964.51
2019-06-26T04:46:18.448Z,99963.55
2019-06-26T04:48:51.003Z,99970.72
2019-06-26T04:51:23.377Z,99973.62
2019-06-26T04:53:55.891Z,99977.88
2019-06-26T04:56:28.237Z,99975.75
2019-06-26T04:59:00.391Z,99976.91
2019-06-26T05:01:32.763Z,99974.63
2019-06-26T05:04:05.143Z,99979.69
2019-06-26T05:06:37.524Z,99980.36
2019-06-26T05:09:10.037Z,99980.84
2019-06-26T05:11:42.273Z,99980.67
2019-06-26T05:14:14.571Z,99980.69
2019-06-26T05:16:46.969Z,99985.73
2019-06-26T05:19:19.247Z,99985.90
2019-06-26T05:21:51.561Z,99989.19
2019-06-26T05:24:23.888Z,99984.13
2019-06-26T05:26:56.220Z,99993.95
2019-06-26T05:29:28.609Z,99993.80
2019-06-26T05:32:00.880Z,99996.41
2019-06-26T05:34:33.260Z,99995.78
2019-06-26T05:37:05.580Z,99993.51
2019-06-26T05:39:38.026Z,99999.56
2019-06-26T05:42:10.555Z,100004.78
2019-06-26T05:44:42.791Z,100004.95
2019-06-26T05:47:15.184Z,100004.15
2019-06-26T05:49:47.605Z,100008.09
2019-06-26T05:52:20.052Z,100011.00
2019-06-26T05:54:52.559Z,100003.23
2019-06-26T05:57:24.999Z,100007.50
2019-06-26T05:59:57.359Z,100008.98
2019-06-26T06:02:29.751Z,100012.39
2019-06-26T06:05:02.056Z,100010.14
2019-06-26T06:07:34.467Z,100016.81
2019-06-26T06:10:07.428Z,100012.43
2019-06-26T06:12:39.876Z,100016.88
2019-06-26T06:15:12.274Z,100014.47
2019-06-26T06:17:45.786Z,100018.41
2019-06-26T06:20:26.551Z,100019.20
2019-06-26T06:22:59.001Z,100025.23
2019-06-26T06:25:31.409Z,100024.13
2019-06-26T06:28:03.892Z,100026.23
2019-06-26T06:30:37.491Z,100027.06
2019-06-26T06:33:09.935Z,100026.28
2019-06-26T06:35:42.429Z,100024.34
2019-06-26T06:38:14.915Z,100027.77
2019-06-26T06:40:47.643Z,100022.88
2019-06-26T06:43:20.175Z,100025.18
2019-06-26T06:45:52.644Z,100023.73
2019-06-26T06:48:25.078Z,100027.35
2019-06-26T06:50:57.486Z,100030.77
2019-06-26T06:53:29.943Z,100029.45
2019-06-26T06:56:02.450Z,100034.66
2019-06-26T06:58:34.951Z,100035.83
2019-06-26T07:01:07.297Z,100042.83
2019-06-26T07:03:39.787Z,100038.91
2019-06-26T07:06:12.198Z,100042.17
2019-06-26T07:08:44.638Z,100046.91
2019-06-26T07:11:17.193Z,100046.58
2019-06-26T07:13:49.685Z,100048.20
2019-06-26T07:16:22.102Z,100047.54
2019-06-26T07:18:54.536Z,100047.39
2019-06-26T07:21:27.099Z,100053.58
2019-06-26T07:23:59.592Z,100050.81
2019-06-26T07:26:32.017Z,100055.36
2019-06-26T07:29:04.571Z,100059.11
2019-06-26T07:31:38.566Z,100063.38
2019-06-26T07:34:11.131Z,100063.84
2019-06-26T07:36:43.596Z,100068.90
2019-06-26T07:39:16.032Z,100067.75
2019-06-26T07:41:48.500Z,100064.17
2019-06-26T07:44:20.922Z,100068.77
2019-06-26T07:46:53.363Z,100071.86
2019-06-26T07:49:25.790Z,100077.23
2019-06-26T07:51:58.237Z,100072.66
2019-06-26T07:54:30.582Z,100073.16
2019-06-26T07:57:03.035Z,100074.45
2019-06-26T07:59:35.501Z,100081.13
2019-06-26T08:02:08.007Z,100079.99
2019-06-26T08:04:40.480Z,100082.59
2019-06-26T08:07:12.913Z,100084.08
2019-06-26T08:09:45.413Z,100080.63
2019-06-26T08:12:17.862Z,100083.06
2019-06-26T08:14:50.291Z,100082.10
2019-06-26T08:17:23.815Z,100084.37
2019-06-26T08:19:56.245Z,100087.80
2019-06-26T08:22:28.687Z,100086.98
2019-06-26T08:25:01.110Z,100089.27
2019-06-26T08:27:33.675Z,100089.09
2019-06-26T08:30:06.681Z,100088.77
2019-06-26T08:32:39.326Z,100090.09
2019-06-26T08:35:11.753Z,100091.20
2019-06-26T08:37:44.224Z,100091.05
2019-06-26T08:40:16.655Z,100089.90
2019-06-26T08:42:49.132Z,100093.48
2019-06-26T08:45:21.550Z,100098.22
2019-06-26T08:47:54.029Z,100094.96
2019-06-26T08:50:26.527Z,100093.13
2019-06-26T08:52:59.008Z,100092.66
2019-06-26T08:55:31.526Z,100089.38
2019-06-26T08:58:04.355Z,100087.41
2019-06-26T09:00:36.804Z,100090.35
2019-06-26T09:03:09.257Z,100086.77
2019-06-26T09:05:47.979Z,100087.27
2019-06-26T09:08:16.388Z,100086.59
2019-06-26T09:10:48.930Z,100087.40
2019-06-26T09:13:21.499Z,100088.04
2019-06-26T09:15:53.987Z,100086.76
2019-06-26T09:18:35.407Z,100082.81
2019-06-26T09:21:01.630Z,100082.81
2019-06-26T09:23:34.264Z,100081.67
2019-06-26T09:26:07.355Z,100084.27
2019-06-26T09:28:39.789Z,100080.20
2019-06-26T09:31:13.322Z,100079.69
2019-06-26T09:33:45.756Z,100078.38
2019-06-26T09:36:18.229Z,100080.16
2019-06-26T09:38:50.760Z,100074.79
2019-06-26T09:41:23.188Z,100079.98
2019-06-26T09:43:55.748Z,100080.31
2019-06-26T09:46:28.143Z,100077.53
2019-06-26T09:49:00.506Z,100078.17
2019-06-26T09:51:32.987Z,100074.42
2019-06-26T09:54:05.438Z,100078.31
2019-06-26T09:56:37.845Z,100075.98
2019-06-26T09:59:10.279Z,100072.25
2019-06-26T10:01:44.564Z,100073.52
2019-06-26T10:04:16.994Z,100075.97
2019-06-26T10:06:49.402Z,100077.90
2019-06-26T10:09:21.898Z,100071.99
2019-06-26T10:11:54.313Z,100075.94
2019-06-26T10:14:45.509Z,100072.19
2019-06-26T10:17:01.176Z,100070.38
2019-06-26T10:19:33.855Z,100068.76
2019-06-26T10:22:06.278Z,100071.50
2019-06-26T10:24:38.710Z,100073.66
2019-06-26T10:27:11.125Z,100073.50
2019-06-26T10:29:43.896Z,100069.72
2019-06-26T10:32:16.392Z,100072.62
2019-06-26T10:34:48.836Z,100071.48
2019-06-26T10:37:21.286Z,100076.53
2019-06-26T10:39:53.760Z,100079.31
2019-06-26T10:42:26.188Z,100074.08
2019-06-26T10:44:58.637Z,100077.49
2019-06-26T10:47:31.248Z,100076.70
2019-06-26T10:50:04.068Z,100077.17
2019-06-26T10:52:36.623Z,100074.37
2019-06-26T10:55:09.052Z,100076.66
2019-06-26T10:57:41.728Z,100072.88
2019-06-26T11:00:14.153Z,100072.06
2019-06-26T11:02:46.569Z,100076.28
2019-06-26T11:05:18.999Z,100074.66
2019-06-26T11:07:51.407Z,100075.45
2019-06-26T11:10:23.827Z,100071.05
2019-06-26T11:12:56.292Z,100067.62
2019-06-26T11:15:28.732Z,100067.47
2019-06-26T11:18:01.150Z,100061.42
2019-06-26T11:20:33.569Z,100057.34
2019-06-26T11:23:06.032Z,100053.56
2019-06-26T11:25:38.655Z,100051.42
2019-06-26T11:28:14.106Z,100047.00
2019-06-26T11:30:46.628Z,100048.65
2019-06-26T11:33:19.057Z,100043.73
2019-06-26T11:35:51.564Z,100050.92
2019-06-26T11:38:23.978Z,100045.53
2019-06-26T11:40:56.388Z,100041.94
2019-06-26T11:43:28.807Z,100041.39
2019-06-26T11:46:01.265Z,100046.14
2019-06-26T11:48:33.669Z,100041.91
2019-06-26T11:51:06.094Z,100041.05
2019-06-26T11:53:38.637Z,100035.30
2019-06-26T11:56:11.243Z,100034.00
2019-06-26T11:58:43.646Z,100029.23
2019-06-26T12:01:16.191Z,100031.20
2019-06-26T12:03:48.736Z,100027.75
2019-06-26T12:06:21.224Z,100025.77
2019-06-26T12:08:53.634Z,100020.04
2019-06-26T12:11:26.053Z,100020.52
2019-06-26T12:13:58.457Z,100016.42
2019-06-26T12:16:30.875Z,100016.73
2019-06-26T12:19:03.316Z,100016.42
2019-06-26T12:21:35.745Z,100019.69
2019-06-26T12:24:08.262Z,100020.83
2019-06-26T12:26:40.695Z,100018.38
2019-06-26T12:29:13.102Z,100016.06
2019-06-26T12:31:45.452Z,100018.56
2019-06-26T12:34:17.943Z,100015.08
2019-06-26T12:36:50.358Z,100015.60
2019-06-26T12:39:22.764Z,100019.20
2019-06-26T12:41:55.220Z,100013.13
2019-06-26T12:44:27.600Z,100010.17
2019-06-26T12:47:01.002Z,100013.11
2019-06-26T12:49:33.496Z,100005.47
2019-06-26T12:52:05.929Z,100006.92
2019-06-26T12:54:39.530Z,100009.66
2019-06-26T12:57:12.026Z,100007.19
2019-06-26T12:59:56.445Z,100000.32
2019-06-26T13:02:18.513Z,99998.33
2019-06-26T13:04:50.910Z,99997.17
2019-06-26T13:07:23.419Z,99993.74
2019-06-26T13:09:55.895Z,99994.72
2019-06-26T13:12:28.319Z,99996.36
2019-06-26T13:15:00.716Z,99994.89
2019-06-26T13:17:33.154Z,99996.02
2019-06-26T13:20:09.482Z,99991.78
2019-06-26T13:22:40.147Z,99990.80
2019-06-26T13:25:16.039Z,99993.40
2019-06-26T13:27:48.808Z,99986.72
2019-06-26T13:30:31.857Z,99987.19
2019-06-26T13:33:04.342Z,99984.09
2019-06-26T13:35:36.670Z,99987.04
2019-06-26T13:38:09.084Z,99982.95
2019-06-26T13:40:41.413Z,99984.57
2019-06-26T13:43:13.932Z,99982.59
2019-06-26T13:45:46.297Z,99976.54
2019-06-26T13:48:19.800Z,99981.07
2019-06-26T13:51:07.817Z,99978.91
2019-06-26T13:53:26.363Z,99974.28
2019-06-26T13:55:58.758Z,99975.76
2019-06-26T13:58:31.181Z,99976.41
2019-06-26T14:01:03.716Z,99976.90
2019-06-26T14:03:36.144Z,99973.62
2019-06-26T14:06:08.538Z,99965.80
2019-06-26T14:08:40.973Z,99964.97
2019-06-26T14:11:13.392Z,99962.70
2019-06-26T14:13:45.823Z,99959.77
2019-06-26T14:16:18.215Z,99961.88
2019-06-26T14:18:50.596Z,99958.75
2019-06-26T14:21:26.154Z,99957.27
2019-06-26T14:23:57.102Z,99952.02
2019-06-26T14:26:29.495Z,99949.58
2019-06-26T14:29:01.914Z,99949.91
2019-06-26T14:31:34.316Z,99949.88
2019-06-26T14:34:06.755Z,99948.08
2019-06-26T14:36:39.216Z,99945.13
2019-06-26T14:39:12.701Z,99945.13
2019-06-26T14:41:45.119Z,99947.42
2019-06-26T14:44:17.542Z,99940.39
2019-06-26T14:46:49.955Z,99946.47
2019-06-26T14:49:22.418Z,99940.91
2019-06-26T14:51:54.821Z,99941.91
2019-06-26T14:54:27.252Z,99939.77
2019-06-26T14:56:59.657Z,99940.43
2019-06-26T14:59:33.415Z,99941.88
2019-06-26T15:02:05.894Z,99932.59
2019-06-26T15:04:38.313Z,99936.67
2019-06-26T15:07:10.713Z,99935.04
2019-06-26T15:09:43.195Z,99938.80
2019-06-26T15:12:15.523Z,99927.84
2019-06-26T15:14:47.945Z,99926.53
2019-06-26T15:17:20.427Z,99924.08
2019-06-26T15:19:52.857Z,99923.26
2019-06-26T15:22:26.327Z,99920.64
2019-06-26T15:24:58.753Z,99925.20
2019-06-26T15:27:31.260Z,99918.34
2019-06-26T15:30:03.675Z,99916.38
2019-06-26T15:32:36.077Z,99914.59
2019-06-26T15:35:08.532Z,99911.16
2019-06-26T15:37:44.671Z,99911.95
2019-06-26T15:40:15.958Z,99910.81
2019-06-26T15:42:49.153Z,99910.33
2019-06-26T15:45:21.713Z,99908.03
2019-06-26T15:47:54.127Z,99906.07
2019-06-26T15:50:26.745Z,99905.39
2019-06-26T15:52:59.169Z,99903.77
2019-06-26T15:55:31.671Z,99907.20
2019-06-26T15:58:04.087Z,99904.23
2019-06-26T16:00:36.514Z,99903.75
2019-06-26T16:03:08.913Z,99901.59
2019-06-26T16:05:41.411Z,99902.58
2019-06-26T16:08:13.838Z,99901.11
2019-06-26T16:10:46.374Z,99898.31
2019-06-26T16:13:18.766Z,99895.90
2019-06-26T16:15:51.196Z,99901.12
2019-06-26T16:18:34.206Z,99901.13
2019-06-26T16:21:07.596Z,99898.69
2019-06-26T16:23:39.999Z,99894.92
2019-06-26T16:26:12.420Z,99889.84
2019-06-26T16:28:45.070Z,99889.36
2019-06-26T16:31:17.482Z,99892.63
2019-06-26T16:33:49.877Z,99886.73
2019-06-26T16:36:22.308Z,99888.88
2019-06-26T16:38:54.708Z,99886.93
2019-06-26T16:41:27.139Z,99883.64
2019-06-26T16:43:59.558Z,99888.09
2019-06-26T16:46:32.000Z,99883.17
2019-06-26T16:49:04.438Z,99880.73
2019-06-26T16:51:36.865Z,99879.42
2019-06-26T16:54:09.269Z,99881.38
2019-06-26T16:56:41.764Z,99877.64
2019-06-26T16:59:14.166Z,99874.70
2019-06-26T17:01:46.693Z,99870.45
2019-06-26T17:04:19.113Z,99871.08
2019-06-26T17:06:51.587Z,99865.22
2019-06-26T17:09:24.041Z,99864.54
2019-06-26T17:11:56.498Z,99862.10
2019-06-26T17:14:28.904Z,99864.21
2019-06-26T17:17:01.376Z,99860.62
2019-06-26T17:19:33.849Z,99861.94
2019-06-26T17:22:07.358Z,99863.90
2019-06-26T17:24:39.899Z,99862.75
2019-06-26T17:27:12.324Z,99864.56
2019-06-26T17:29:44.748Z,99859.98
2019-06-26T17:32:17.148Z,99858.86
2019-06-26T17:34:49.546Z,99854.14
2019-06-26T17:37:21.974Z,99853.81
2019-06-26T17:39:54.374Z,99850.05
2019-06-26T17:42:26.889Z,99851.02
2019-06-26T17:44:59.307Z,99848.08
2019-06-26T17:47:31.729Z,99849.23
2019-06-26T17:50:04.162Z,99850.70
2019-06-26T17:52:38.443Z,99846.31
2019-06-26T17:55:10.725Z,99851.23
2019-06-26T17:57:43.150Z,99850.06
2019-06-26T18:00:17.162Z,99853.36
2019-06-26T18:02:49.611Z,99853.19
2019-06-26T18:05:22.046Z,99856.80
2019-06-26T18:07:54.491Z,99856.00
2019-06-26T18:10:26.904Z,99860.72
2019-06-26T18:13:00.156Z,99861.58
2019-06-26T18:15:32.582Z,99861.23
2019-06-26T18:18:05.025Z,99859.14
2019-06-26T18:20:37.428Z,99862.73
2019-06-26T18:23:09.861Z,99861.44
2019-06-26T18:25:43.041Z,99862.41
2019-06-26T18:28:15.502Z,99861.59
2019-06-26T18:30:47.977Z,99860.97
2019-06-26T18:33:20.361Z,99862.43
2019-06-26T18:35:52.789Z,99866.68
2019-06-26T18:38:25.291Z,99864.75
2019-06-26T18:40:57.717Z,99868.66
2019-06-26T18:43:30.280Z,99872.27
2019-06-26T18:46:02.680Z,99873.56
2019-06-26T18:48:35.117Z,99870.64
2019-06-26T18:51:07.523Z,99875.20
2019-06-26T18:53:52.705Z,99877.67
2019-06-26T18:56:15.149Z,99879.64
2019-06-26T18:58:47.586Z,99878.15
2019-06-26T19:01:20.007Z,99876.70
2019-06-26T19:03:52.463Z,99880.64
2019-06-26T19:06:24.857Z,99881.44
2019-06-26T19:08:57.296Z,99879.83
2019-06-26T19:11:29.789Z,99889.48
2019-06-26T19:14:02.225Z,99886.71
2019-06-26T19:16:36.362Z,99890.96
2019-06-26T19:19:12.134Z,99892.64
2019-06-26T19:21:45.039Z,99900.00
2019-06-26T19:24:17.529Z,99903.77
2019-06-26T19:26:49.932Z,99904.14
2019-06-26T19:29:22.381Z,99908.35
2019-06-26T19:31:54.714Z,99909.34
2019-06-26T19:34:27.151Z,99913.60
2019-06-26T19:36:59.626Z,99909.57
2019-06-26T19:39:32.044Z,99913.31
2019-06-26T19:42:04.520Z,99912.54
2019-06-26T19:44:40.449Z,99914.72
2019-06-26T19:47:12.884Z,99914.40
2019-06-26T19:49:45.253Z,99915.74
2019-06-26T19:52:17.688Z,99920.36
2019-06-26T19:54:50.105Z,99921.38
2019-06-26T19:57:22.536Z,99924.65
2019-06-26T19:59:54.953Z,99925.36
2019-06-26T20:02:27.377Z,99925.05
2019-06-26T20:04:59.790Z,99930.95
2019-06-26T20:07:32.270Z,99933.59
2019-06-26T20:10:04.933Z,99936.55
2019-06-26T20:12:37.365Z,99937.37
2019-06-26T20:15:09.985Z,99936.91
2019-06-26T20:17:42.493Z,99940.34
2019-06-26T20:20:14.903Z,99935.31
2019-06-26T20:22:47.305Z,99937.76
2019-06-26T20:25:22.578Z,99939.42
2019-06-26T20:27:57.256Z,99941.72
2019-06-26T20:30:32.834Z,99945.63
2019-06-26T20:33:05.274Z,99947.30
2019-06-26T20:35:38.922Z,99945.67
2019-06-26T20:38:11.726Z,99949.80
2019-06-26T20:40:45.964Z,99954.06
2019-06-26T20:43:18.199Z,99958.48
2019-06-26T20:45:50.635Z,99960.14
2019-06-26T20:48:23.076Z,99960.82
2019-06-26T20:50:55.477Z,99956.25
2019-06-26T20:53:28.134Z,99965.23
2019-06-26T20:56:00.529Z,99953.66
2019-06-26T20:58:32.960Z,99957.27
2019-06-26T21:01:05.377Z,99958.59
2019-06-26T21:03:37.820Z,99957.30
2019-06-26T21:06:10.284Z,99962.35
2019-06-26T21:08:42.716Z,99957.97
2019-06-26T21:11:15.934Z,99962.71
2019-06-26T21:13:48.537Z,99965.48
2019-06-26T21:16:20.941Z,99968.58
2019-06-26T21:18:53.371Z,99967.95
2019-06-26T21:21:26.841Z,99974.50
2019-06-26T21:23:59.203Z,99975.16
2019-06-26T21:26:31.622Z,99977.94
2019-06-26T21:29:04.051Z,99980.58
2019-06-26T21:31:36.526Z,99977.47
2019-06-26T21:34:08.980Z,99978.41
2019-06-26T21:36:41.439Z,99980.70
2019-06-26T21:39:13.876Z,99982.52
2019-06-26T21:41:46.318Z,99978.77
2019-06-26T21:44:18.673Z,99981.58
2019-06-26T21:46:51.191Z,99985.48
2019-06-26T21:49:23.619Z,99985.81
2019-06-26T21:51:56.028Z,99982.90
2019-06-26T21:54:28.450Z,99986.67
2019-06-26T21:57:18.586Z,99980.97
2019-06-26T22:00:09.284Z,99980.96
2019-06-26T22:02:59.563Z,99988.66
2019-06-26T22:05:33.607Z,99991.77
2019-06-26T22:08:22.599Z,99991.27
2019-06-26T22:10:56.684Z,99993.55
2019-06-26T22:13:29.387Z,99993.89
2019-06-26T22:16:01.956Z,99996.65
2019-06-26T22:18:34.440Z,99995.02
2019-06-26T22:21:06.889Z,100000.73
2019-06-26T22:23:39.292Z,100000.26
2019-06-26T22:26:14.121Z,100002.03
2019-06-26T22:28:45.770Z,99997.95
2019-06-26T22:31:18.218Z,99998.30
2019-06-26T22:33:50.538Z,99994.05
2019-06-26T22:36:22.975Z,100000.25
2019-06-26T22:38:55.321Z,100000.73
2019-06-26T22:41:27.781Z,100000.41
2019-06-26T22:44:00.197Z,100005.11
2019-06-26T22:46:32.644Z,100002.52
2019-06-26T22:49:05.059Z,100000.07
2019-06-26T22:51:37.564Z,100003.33
2019-06-26T22:54:10.279Z,100002.52
2019-06-26T22:56:42.732Z,100003.31
2019-06-26T22:59:15.148Z,100001.69
2019-06-26T23:01:47.595Z,100002.35
2019-06-26T23:04:20.014Z,100005.45
2019-06-26T23:06:52.549Z,100004.81
2019-06-26T23:09:25.064Z,100007.88
2019-06-26T23:11:57.495Z,100008.88
2019-06-26T23:14:29.937Z,100009.52
2019-06-26T23:17:02.378Z,100008.56
2019-06-26T23:19:34.726Z,100007.72
2019-06-26T23:22:07.208Z,100013.61
2019-06-26T23:24:39.621Z,100007.23
2019-06-26T23:27:12.064Z,100009.84
2019-06-26T23:29:44.508Z,100005.77
2019-06-26T23:32:16.948Z,100006.89
2019-06-26T23:34:49.296Z,100001.67
2019-06-26T23:37:21.733Z,100013.09
2019-06-26T23:39:54.143Z,100010.81
2019-06-26T23:42:26.607Z,100009.34
2019-06-26T23:44:59.099Z,100005.27
2019-06-26T23:47:31.535Z,100010.66
2019-06-26T23:50:03.982Z,100014.89
2019-06-26T23:52:36.427Z,100015.08
2019-06-26T23:55:08.903Z,100016.20
2019-06-26T23:57:54.660Z,100017.67
